sensor_id;sensor_type;location;lat;lon;timestamp;P1;durP1;ratioP1;P2;durP2;ratioP2
76850;SDS011;65824;43.726;20.692;2023-03-23T00:00:04;45.00;;;23.40;;
76850;SDS011;65824;43.726;20.692;2023-03-23T00:02:31;47.20;;;24.65;;
76850;SDS011;65824;43.726;20.692;2023-03-23T00:05:00;50.88;;;25.55;;
76850;SDS011;65824;43.726;20.692;2023-03-23T00:07:28;43.20;;;24.27;;
76850;SDS011;65824;43.726;20.692;2023-03-23T00:09:54;41.92;;;21.73;;
76850;SDS011;65824;43.726;20.692;2023-03-23T00:12:21;40.03;;;22.95;;
76850;SDS011;65824;43.726;20.692;2023-03-23T00:14:54;45.95;;;27.13;;
76850;SDS011;65824;43.726;20.692;2023-03-23T00:17:20;32.55;;;18.23;;
76850;SDS011;65824;43.726;20.692;2023-03-23T00:19:50;38.85;;;21.33;;
76850;SDS011;65824;43.726;20.692;2023-03-23T00:22:16;42.22;;;25.42;;
76850;SDS011;65824;43.726;20.692;2023-03-23T00:24:44;43.58;;;24.55;;
76850;SDS011;65824;43.726;20.692;2023-03-23T00:27:10;45.95;;;25.35;;
76850;SDS011;65824;43.726;20.692;2023-03-23T00:29:38;40.15;;;21.60;;
76850;SDS011;65824;43.726;20.692;2023-03-23T00:32:04;52.13;;;28.00;;
76850;SDS011;65824;43.726;20.692;2023-03-23T00:34:30;64.82;;;32.13;;
76850;SDS011;65824;43.726;20.692;2023-03-23T00:36:58;62.80;;;31.40;;
76850;SDS011;65824;43.726;20.692;2023-03-23T00:39:24;60.47;;;31.83;;
76850;SDS011;65824;43.726;20.692;2023-03-23T00:41:51;64.15;;;32.55;;
76850;SDS011;65824;43.726;20.692;2023-03-23T00:44:29;71.22;;;35.25;;
76850;SDS011;65824;43.726;20.692;2023-03-23T00:46:56;65.30;;;31.13;;
76850;SDS011;65824;43.726;20.692;2023-03-23T00:49:23;61.30;;;30.83;;
76850;SDS011;65824;43.726;20.692;2023-03-23T00:51:50;60.15;;;28.98;;
76850;SDS011;65824;43.726;20.692;2023-03-23T00:54:16;40.05;;;21.75;;
76850;SDS011;65824;43.726;20.692;2023-03-23T00:56:42;38.90;;;21.73;;
76850;SDS011;65824;43.726;20.692;2023-03-23T00:59:08;26.88;;;14.88;;
76850;SDS011;65824;43.726;20.692;2023-03-23T01:01:33;25.33;;;14.85;;
76850;SDS011;65824;43.726;20.692;2023-03-23T01:04:00;27.30;;;17.20;;
76850;SDS011;65824;43.726;20.692;2023-03-23T01:06:29;19.35;;;11.45;;
76850;SDS011;65824;43.726;20.692;2023-03-23T01:08:57;19.98;;;10.98;;
76850;SDS011;65824;43.726;20.692;2023-03-23T01:11:25;20.13;;;11.52;;
76850;SDS011;65824;43.726;20.692;2023-03-23T01:13:51;17.48;;;10.10;;
76850;SDS011;65824;43.726;20.692;2023-03-23T01:16:22;15.93;;;9.95;;
76850;SDS011;65824;43.726;20.692;2023-03-23T01:18:50;21.52;;;13.55;;
76850;SDS011;65824;43.726;20.692;2023-03-23T01:21:16;21.67;;;11.93;;
76850;SDS011;65824;43.726;20.692;2023-03-23T01:23:43;21.00;;;11.95;;
76850;SDS011;65824;43.726;20.692;2023-03-23T01:26:13;17.20;;;10.35;;
76850;SDS011;65824;43.726;20.692;2023-03-23T01:28:41;24.98;;;13.18;;
76850;SDS011;65824;43.726;20.692;2023-03-23T01:31:08;19.25;;;10.88;;
76850;SDS011;65824;43.726;20.692;2023-03-23T01:33:36;20.85;;;11.63;;
76850;SDS011;65824;43.726;20.692;2023-03-23T01:36:03;18.52;;;10.88;;
76850;SDS011;65824;43.726;20.692;2023-03-23T01:38:30;20.65;;;11.52;;
76850;SDS011;65824;43.726;20.692;2023-03-23T01:40:56;25.50;;;11.60;;
76850;SDS011;65824;43.726;20.692;2023-03-23T01:43:24;28.35;;;15.82;;
76850;SDS011;65824;43.726;20.692;2023-03-23T01:45:50;36.65;;;20.90;;
76850;SDS011;65824;43.726;20.692;2023-03-23T01:48:21;44.28;;;25.42;;
76850;SDS011;65824;43.726;20.692;2023-03-23T01:50:54;47.97;;;27.75;;
76850;SDS011;65824;43.726;20.692;2023-03-23T01:53:26;50.33;;;26.83;;
76850;SDS011;65824;43.726;20.692;2023-03-23T01:56:05;49.50;;;29.00;;
76850;SDS011;65824;43.726;20.692;2023-03-23T01:58:32;55.33;;;29.90;;
76850;SDS011;65824;43.726;20.692;2023-03-23T02:01:00;52.03;;;29.10;;
76850;SDS011;65824;43.726;20.692;2023-03-23T02:03:28;54.70;;;28.55;;
76850;SDS011;65824;43.726;20.692;2023-03-23T02:05:56;43.42;;;24.25;;
76850;SDS011;65824;43.726;20.692;2023-03-23T02:08:26;39.80;;;22.08;;
76850;SDS011;65824;43.726;20.692;2023-03-23T02:10:53;36.85;;;19.85;;
76850;SDS011;65824;43.726;20.692;2023-03-23T02:13:19;40.83;;;22.88;;
76850;SDS011;65824;43.726;20.692;2023-03-23T02:26:41;39.70;;;20.33;;
76850;SDS011;65824;43.726;20.692;2023-03-23T02:32:06;29.30;;;16.15;;
76850;SDS011;65824;43.726;20.692;2023-03-23T02:34:41;30.80;;;15.55;;
76850;SDS011;65824;43.726;20.692;2023-03-23T02:37:11;29.48;;;15.10;;
76850;SDS011;65824;43.726;20.692;2023-03-23T02:39:50;31.23;;;15.55;;
76850;SDS011;65824;43.726;20.692;2023-03-23T02:42:20;28.05;;;14.38;;
76850;SDS011;65824;43.726;20.692;2023-03-23T02:44:48;25.98;;;14.88;;
76850;SDS011;65824;43.726;20.692;2023-03-23T02:47:19;27.30;;;13.90;;
76850;SDS011;65824;43.726;20.692;2023-03-23T02:49:48;27.48;;;13.50;;
76850;SDS011;65824;43.726;20.692;2023-03-23T02:52:18;24.70;;;13.88;;
76850;SDS011;65824;43.726;20.692;2023-03-23T02:54:47;23.55;;;13.65;;
76850;SDS011;65824;43.726;20.692;2023-03-23T02:57:14;31.65;;;16.38;;
76850;SDS011;65824;43.726;20.692;2023-03-23T02:59:39;31.75;;;17.15;;
76850;SDS011;65824;43.726;20.692;2023-03-23T03:02:39;31.63;;;16.15;;
76850;SDS011;65824;43.726;20.692;2023-03-23T03:05:20;28.77;;;14.02;;
76850;SDS011;65824;43.726;20.692;2023-03-23T03:19:03;25.88;;;12.82;;
76850;SDS011;65824;43.726;20.692;2023-03-23T03:21:50;25.33;;;13.13;;
76850;SDS011;65824;43.726;20.692;2023-03-23T03:24:19;27.13;;;13.00;;
76850;SDS011;65824;43.726;20.692;2023-03-23T03:26:47;24.33;;;13.13;;
76850;SDS011;65824;43.726;20.692;2023-03-23T03:29:15;23.80;;;11.90;;
76850;SDS011;65824;43.726;20.692;2023-03-23T03:31:48;33.08;;;17.30;;
76850;SDS011;65824;43.726;20.692;2023-03-23T03:34:14;49.55;;;23.02;;
76850;SDS011;65824;43.726;20.692;2023-03-23T03:36:42;45.15;;;21.73;;
76850;SDS011;65824;43.726;20.692;2023-03-23T03:39:10;41.08;;;20.55;;
76850;SDS011;65824;43.726;20.692;2023-03-23T03:41:40;34.55;;;18.35;;
76850;SDS011;65824;43.726;20.692;2023-03-23T03:44:06;30.13;;;16.20;;
76850;SDS011;65824;43.726;20.692;2023-03-23T03:46:32;28.42;;;15.48;;
76850;SDS011;65824;43.726;20.692;2023-03-23T03:48:58;27.88;;;14.60;;
76850;SDS011;65824;43.726;20.692;2023-03-23T03:51:26;24.98;;;14.85;;
76850;SDS011;65824;43.726;20.692;2023-03-23T03:53:53;28.05;;;14.48;;
76850;SDS011;65824;43.726;20.692;2023-03-23T03:56:18;22.50;;;12.15;;
76850;SDS011;65824;43.726;20.692;2023-03-23T03:58:47;20.00;;;11.63;;
76850;SDS011;65824;43.726;20.692;2023-03-23T04:01:14;21.00;;;10.75;;
76850;SDS011;65824;43.726;20.692;2023-03-23T04:03:41;28.20;;;16.30;;
76850;SDS011;65824;43.726;20.692;2023-03-23T04:06:06;36.60;;;18.15;;
76850;SDS011;65824;43.726;20.692;2023-03-23T04:08:33;30.75;;;17.45;;
76850;SDS011;65824;43.726;20.692;2023-03-23T04:10:59;32.55;;;17.60;;
76850;SDS011;65824;43.726;20.692;2023-03-23T04:13:25;28.67;;;16.42;;
76850;SDS011;65824;43.726;20.692;2023-03-23T04:15:50;33.60;;;15.93;;
76850;SDS011;65824;43.726;20.692;2023-03-23T04:18:16;27.95;;;15.88;;
76850;SDS011;65824;43.726;20.692;2023-03-23T04:20:43;30.85;;;16.20;;
76850;SDS011;65824;43.726;20.692;2023-03-23T04:23:09;29.80;;;15.70;;
76850;SDS011;65824;43.726;20.692;2023-03-23T04:25:35;31.10;;;16.55;;
76850;SDS011;65824;43.726;20.692;2023-03-23T04:28:00;29.02;;;14.95;;
76850;SDS011;65824;43.726;20.692;2023-03-23T04:30:26;22.42;;;12.02;;
76850;SDS011;65824;43.726;20.692;2023-03-23T04:32:52;21.60;;;11.90;;
76850;SDS011;65824;43.726;20.692;2023-03-23T04:35:22;21.20;;;12.43;;
76850;SDS011;65824;43.726;20.692;2023-03-23T04:37:51;22.98;;;11.73;;
76850;SDS011;65824;43.726;20.692;2023-03-23T04:40:17;31.63;;;17.90;;
76850;SDS011;65824;43.726;20.692;2023-03-23T04:42:43;27.23;;;15.38;;
76850;SDS011;65824;43.726;20.692;2023-03-23T04:45:17;25.02;;;15.50;;
76850;SDS011;65824;43.726;20.692;2023-03-23T04:47:47;21.95;;;13.20;;
76850;SDS011;65824;43.726;20.692;2023-03-23T04:50:18;19.73;;;12.63;;
76850;SDS011;65824;43.726;20.692;2023-03-23T04:52:44;27.48;;;12.88;;
76850;SDS011;65824;43.726;20.692;2023-03-23T04:55:11;21.90;;;12.13;;
76850;SDS011;65824;43.726;20.692;2023-03-23T04:57:37;27.13;;;11.90;;
76850;SDS011;65824;43.726;20.692;2023-03-23T05:00:04;22.38;;;12.80;;
76850;SDS011;65824;43.726;20.692;2023-03-23T05:02:36;20.00;;;12.73;;
76850;SDS011;65824;43.726;20.692;2023-03-23T05:05:05;19.38;;;11.95;;
76850;SDS011;65824;43.726;20.692;2023-03-23T05:07:31;19.52;;;11.07;;
76850;SDS011;65824;43.726;20.692;2023-03-23T05:09:57;23.02;;;11.07;;
76850;SDS011;65824;43.726;20.692;2023-03-23T05:12:23;20.52;;;11.82;;
76850;SDS011;65824;43.726;20.692;2023-03-23T05:14:48;21.65;;;12.90;;
76850;SDS011;65824;43.726;20.692;2023-03-23T05:17:14;24.75;;;13.23;;
76850;SDS011;65824;43.726;20.692;2023-03-23T05:19:42;19.02;;;11.90;;
76850;SDS011;65824;43.726;20.692;2023-03-23T05:22:09;19.75;;;11.50;;
76850;SDS011;65824;43.726;20.692;2023-03-23T05:24:34;19.10;;;12.45;;
76850;SDS011;65824;43.726;20.692;2023-03-23T05:27:00;22.00;;;14.07;;
76850;SDS011;65824;43.726;20.692;2023-03-23T05:29:27;25.15;;;16.75;;
76850;SDS011;65824;43.726;20.692;2023-03-23T05:31:54;21.92;;;13.18;;
76850;SDS011;65824;43.726;20.692;2023-03-23T05:34:20;24.50;;;13.07;;
76850;SDS011;65824;43.726;20.692;2023-03-23T05:36:47;24.20;;;12.90;;
76850;SDS011;65824;43.726;20.692;2023-03-23T05:39:13;28.60;;;13.90;;
76850;SDS011;65824;43.726;20.692;2023-03-23T05:41:39;24.40;;;13.32;;
76850;SDS011;65824;43.726;20.692;2023-03-23T05:44:05;28.17;;;15.35;;
76850;SDS011;65824;43.726;20.692;2023-03-23T05:46:30;27.52;;;15.57;;
76850;SDS011;65824;43.726;20.692;2023-03-23T05:48:57;25.52;;;14.52;;
76850;SDS011;65824;43.726;20.692;2023-03-23T05:51:22;24.95;;;14.57;;
76850;SDS011;65824;43.726;20.692;2023-03-23T05:53:48;24.38;;;15.18;;
76850;SDS011;65824;43.726;20.692;2023-03-23T05:56:14;22.35;;;13.38;;
76850;SDS011;65824;43.726;20.692;2023-03-23T05:58:43;23.95;;;13.75;;
76850;SDS011;65824;43.726;20.692;2023-03-23T06:01:09;23.17;;;12.60;;
76850;SDS011;65824;43.726;20.692;2023-03-23T06:03:34;23.85;;;13.05;;
76850;SDS011;65824;43.726;20.692;2023-03-23T06:06:05;26.05;;;13.77;;
76850;SDS011;65824;43.726;20.692;2023-03-23T06:08:33;29.83;;;14.82;;
76850;SDS011;65824;43.726;20.692;2023-03-23T06:11:02;26.65;;;14.90;;
76850;SDS011;65824;43.726;20.692;2023-03-23T06:13:28;23.42;;;15.02;;
76850;SDS011;65824;43.726;20.692;2023-03-23T06:15:55;29.77;;;16.48;;
76850;SDS011;65824;43.726;20.692;2023-03-23T06:18:22;30.98;;;17.80;;
76850;SDS011;65824;43.726;20.692;2023-03-23T06:20:49;31.45;;;17.73;;
76850;SDS011;65824;43.726;20.692;2023-03-23T06:23:15;34.25;;;19.88;;
76850;SDS011;65824;43.726;20.692;2023-03-23T06:25:42;31.85;;;18.90;;
76850;SDS011;65824;43.726;20.692;2023-03-23T06:28:08;29.45;;;18.42;;
76850;SDS011;65824;43.726;20.692;2023-03-23T06:30:34;27.60;;;18.30;;
76850;SDS011;65824;43.726;20.692;2023-03-23T06:33:01;25.40;;;17.75;;
76850;SDS011;65824;43.726;20.692;2023-03-23T06:35:27;27.58;;;17.50;;
76850;SDS011;65824;43.726;20.692;2023-03-23T06:37:53;29.50;;;18.35;;
76850;SDS011;65824;43.726;20.692;2023-03-23T06:40:19;33.17;;;18.77;;
76850;SDS011;65824;43.726;20.692;2023-03-23T06:42:46;26.20;;;17.92;;
76850;SDS011;65824;43.726;20.692;2023-03-23T06:45:11;29.88;;;17.65;;
76850;SDS011;65824;43.726;20.692;2023-03-23T06:47:38;29.25;;;17.88;;
76850;SDS011;65824;43.726;20.692;2023-03-23T06:50:04;29.95;;;18.40;;
76850;SDS011;65824;43.726;20.692;2023-03-23T06:52:34;28.58;;;18.42;;
76850;SDS011;65824;43.726;20.692;2023-03-23T06:55:02;27.45;;;17.40;;
76850;SDS011;65824;43.726;20.692;2023-03-23T06:57:28;30.13;;;18.48;;
76850;SDS011;65824;43.726;20.692;2023-03-23T06:59:53;31.90;;;19.58;;
76850;SDS011;65824;43.726;20.692;2023-03-23T07:02:19;31.40;;;20.45;;
76850;SDS011;65824;43.726;20.692;2023-03-23T07:04:44;26.58;;;19.00;;
76850;SDS011;65824;43.726;20.692;2023-03-23T07:07:10;29.25;;;19.27;;
76850;SDS011;65824;43.726;20.692;2023-03-23T07:09:39;28.02;;;18.88;;
76850;SDS011;65824;43.726;20.692;2023-03-23T07:12:07;29.35;;;19.80;;
76850;SDS011;65824;43.726;20.692;2023-03-23T07:14:32;31.15;;;20.00;;
76850;SDS011;65824;43.726;20.692;2023-03-23T07:16:58;31.65;;;21.25;;
76850;SDS011;65824;43.726;20.692;2023-03-23T07:19:25;34.42;;;22.70;;
76850;SDS011;65824;43.726;20.692;2023-03-23T07:21:51;34.67;;;24.48;;
76850;SDS011;65824;43.726;20.692;2023-03-23T07:24:18;37.05;;;23.10;;
76850;SDS011;65824;43.726;20.692;2023-03-23T07:26:44;34.40;;;23.38;;
76850;SDS011;65824;43.726;20.692;2023-03-23T07:29:11;31.83;;;23.25;;
76850;SDS011;65824;43.726;20.692;2023-03-23T07:31:36;34.45;;;22.48;;
76850;SDS011;65824;43.726;20.692;2023-03-23T07:34:02;29.20;;;20.08;;
76850;SDS011;65824;43.726;20.692;2023-03-23T07:36:28;28.55;;;19.60;;
76850;SDS011;65824;43.726;20.692;2023-03-23T07:38:54;26.90;;;17.35;;
76850;SDS011;65824;43.726;20.692;2023-03-23T07:41:20;25.25;;;17.60;;
76850;SDS011;65824;43.726;20.692;2023-03-23T07:43:46;27.73;;;16.42;;
76850;SDS011;65824;43.726;20.692;2023-03-23T07:46:12;24.73;;;17.02;;
76850;SDS011;65824;43.726;20.692;2023-03-23T07:48:38;26.65;;;15.20;;
76850;SDS011;65824;43.726;20.692;2023-03-23T07:51:06;23.05;;;13.23;;
76850;SDS011;65824;43.726;20.692;2023-03-23T07:53:33;16.77;;;11.45;;
76850;SDS011;65824;43.726;20.692;2023-03-23T07:56:03;14.10;;;9.73;;
76850;SDS011;65824;43.726;20.692;2023-03-23T07:58:29;17.25;;;10.07;;
76850;SDS011;65824;43.726;20.692;2023-03-23T08:00:56;16.33;;;10.70;;
76850;SDS011;65824;43.726;20.692;2023-03-23T08:03:22;18.88;;;11.52;;
76850;SDS011;65824;43.726;20.692;2023-03-23T08:05:48;16.98;;;11.15;;
76850;SDS011;65824;43.726;20.692;2023-03-23T08:08:16;18.63;;;11.20;;
76850;SDS011;65824;43.726;20.692;2023-03-23T08:10:43;18.67;;;12.30;;
76850;SDS011;65824;43.726;20.692;2023-03-23T08:13:09;17.92;;;11.27;;
76850;SDS011;65824;43.726;20.692;2023-03-23T08:15:35;20.92;;;12.35;;
76850;SDS011;65824;43.726;20.692;2023-03-23T08:18:02;22.23;;;11.98;;
76850;SDS011;65824;43.726;20.692;2023-03-23T08:20:28;19.88;;;13.38;;
76850;SDS011;65824;43.726;20.692;2023-03-23T08:22:55;17.75;;;11.40;;
76850;SDS011;65824;43.726;20.692;2023-03-23T08:25:22;23.27;;;13.68;;
76850;SDS011;65824;43.726;20.692;2023-03-23T08:27:50;23.02;;;13.90;;
76850;SDS011;65824;43.726;20.692;2023-03-23T08:30:17;17.98;;;11.52;;
76850;SDS011;65824;43.726;20.692;2023-03-23T08:33:07;14.65;;;10.40;;
76850;SDS011;65824;43.726;20.692;2023-03-23T08:35:35;13.70;;;8.90;;
76850;SDS011;65824;43.726;20.692;2023-03-23T08:38:01;17.35;;;11.20;;
76850;SDS011;65824;43.726;20.692;2023-03-23T08:40:28;18.95;;;11.63;;
76850;SDS011;65824;43.726;20.692;2023-03-23T08:42:53;18.27;;;11.23;;
76850;SDS011;65824;43.726;20.692;2023-03-23T08:45:20;14.48;;;9.90;;
76850;SDS011;65824;43.726;20.692;2023-03-23T08:47:49;13.40;;;9.18;;
76850;SDS011;65824;43.726;20.692;2023-03-23T08:50:20;12.98;;;8.63;;
76850;SDS011;65824;43.726;20.692;2023-03-23T08:52:48;13.60;;;8.27;;
76850;SDS011;65824;43.726;20.692;2023-03-23T08:55:15;12.20;;;8.10;;
76850;SDS011;65824;43.726;20.692;2023-03-23T08:57:41;13.73;;;8.30;;
76850;SDS011;65824;43.726;20.692;2023-03-23T09:00:10;12.93;;;7.60;;
76850;SDS011;65824;43.726;20.692;2023-03-23T09:02:44;10.93;;;7.35;;
76850;SDS011;65824;43.726;20.692;2023-03-23T09:05:12;14.65;;;7.47;;
76850;SDS011;65824;43.726;20.692;2023-03-23T09:07:39;11.10;;;7.72;;
76850;SDS011;65824;43.726;20.692;2023-03-23T09:10:06;11.07;;;7.82;;
76850;SDS011;65824;43.726;20.692;2023-03-23T09:12:32;11.18;;;7.97;;
76850;SDS011;65824;43.726;20.692;2023-03-23T09:14:58;14.40;;;7.45;;
76850;SDS011;65824;43.726;20.692;2023-03-23T09:17:28;11.00;;;7.18;;
76850;SDS011;65824;43.726;20.692;2023-03-23T09:19:56;11.70;;;7.75;;
76850;SDS011;65824;43.726;20.692;2023-03-23T09:22:22;11.02;;;7.57;;
76850;SDS011;65824;43.726;20.692;2023-03-23T09:24:49;14.15;;;8.43;;
76850;SDS011;65824;43.726;20.692;2023-03-23T09:27:16;15.80;;;8.30;;
76850;SDS011;65824;43.726;20.692;2023-03-23T09:29:45;14.60;;;8.32;;
76850;SDS011;65824;43.726;20.692;2023-03-23T09:32:13;10.98;;;6.88;;
76850;SDS011;65824;43.726;20.692;2023-03-23T09:34:39;13.32;;;7.20;;
76850;SDS011;65824;43.726;20.692;2023-03-23T09:37:06;10.18;;;6.90;;
76850;SDS011;65824;43.726;20.692;2023-03-23T09:39:31;10.50;;;7.18;;
76850;SDS011;65824;43.726;20.692;2023-03-23T09:49:43;12.20;;;7.05;;
76850;SDS011;65824;43.726;20.692;2023-03-23T09:52:15;12.27;;;6.57;;
76850;SDS011;65824;43.726;20.692;2023-03-23T09:54:46;14.85;;;7.53;;
76850;SDS011;65824;43.726;20.692;2023-03-23T10:00:02;8.93;;;5.78;;
76850;SDS011;65824;43.726;20.692;2023-03-23T10:02:32;10.52;;;6.13;;
76850;SDS011;65824;43.726;20.692;2023-03-23T10:07:55;8.98;;;5.68;;
76850;SDS011;65824;43.726;20.692;2023-03-23T10:10:21;11.45;;;6.68;;
76850;SDS011;65824;43.726;20.692;2023-03-23T10:18:04;8.65;;;5.85;;
76850;SDS011;65824;43.726;20.692;2023-03-23T10:25:52;12.38;;;4.65;;
76850;SDS011;65824;43.726;20.692;2023-03-23T10:28:43;5.90;;;3.47;;
76850;SDS011;65824;43.726;20.692;2023-03-23T10:31:15;13.40;;;4.50;;
76850;SDS011;65824;43.726;20.692;2023-03-23T10:33:47;11.30;;;4.93;;
76850;SDS011;65824;43.726;20.692;2023-03-23T10:36:16;8.30;;;4.13;;
76850;SDS011;65824;43.726;20.692;2023-03-23T10:41:16;7.07;;;4.50;;
76850;SDS011;65824;43.726;20.692;2023-03-23T10:43:43;8.00;;;4.82;;
76850;SDS011;65824;43.726;20.692;2023-03-23T10:48:54;8.00;;;4.13;;
76850;SDS011;65824;43.726;20.692;2023-03-23T10:51:33;6.50;;;4.45;;
76850;SDS011;65824;43.726;20.692;2023-03-23T10:54:01;9.13;;;4.95;;
76850;SDS011;65824;43.726;20.692;2023-03-23T10:56:39;6.88;;;4.28;;
76850;SDS011;65824;43.726;20.692;2023-03-23T11:01:55;7.10;;;4.18;;
76850;SDS011;65824;43.726;20.692;2023-03-23T11:04:23;7.28;;;4.35;;
76850;SDS011;65824;43.726;20.692;2023-03-23T11:06:51;8.45;;;4.35;;
76850;SDS011;65824;43.726;20.692;2023-03-23T11:09:19;8.02;;;5.10;;
76850;SDS011;65824;43.726;20.692;2023-03-23T11:11:53;7.55;;;4.57;;
76850;SDS011;65824;43.726;20.692;2023-03-23T11:14:34;6.78;;;4.65;;
76850;SDS011;65824;43.726;20.692;2023-03-23T11:17:04;10.68;;;5.28;;
76850;SDS011;65824;43.726;20.692;2023-03-23T11:19:35;6.07;;;4.53;;
76850;SDS011;65824;43.726;20.692;2023-03-23T11:24:31;9.23;;;4.72;;
76850;SDS011;65824;43.726;20.692;2023-03-23T11:26:58;7.18;;;4.97;;
76850;SDS011;65824;43.726;20.692;2023-03-23T11:29:28;6.75;;;4.47;;
76850;SDS011;65824;43.726;20.692;2023-03-23T11:40:23;7.20;;;4.43;;
76850;SDS011;65824;43.726;20.692;2023-03-23T11:43:00;6.60;;;4.38;;
76850;SDS011;65824;43.726;20.692;2023-03-23T11:50:51;7.22;;;4.38;;
76850;SDS011;65824;43.726;20.692;2023-03-23T11:56:25;7.07;;;4.10;;
76850;SDS011;65824;43.726;20.692;2023-03-23T11:58:54;5.82;;;4.47;;
76850;SDS011;65824;43.726;20.692;2023-03-23T12:01:43;7.95;;;4.90;;
76850;SDS011;65824;43.726;20.692;2023-03-23T12:07:03;8.30;;;4.80;;
76850;SDS011;65824;43.726;20.692;2023-03-23T12:12:10;7.70;;;4.40;;
76850;SDS011;65824;43.726;20.692;2023-03-23T12:14:50;6.13;;;4.50;;
76850;SDS011;65824;43.726;20.692;2023-03-23T12:23:28;8.52;;;4.95;;
76850;SDS011;65824;43.726;20.692;2023-03-23T12:26:43;7.93;;;4.53;;
76850;SDS011;65824;43.726;20.692;2023-03-23T12:58:55;8.93;;;4.93;;
76850;SDS011;65824;43.726;20.692;2023-03-23T13:01:47;11.38;;;5.72;;
76850;SDS011;65824;43.726;20.692;2023-03-23T13:06:51;10.20;;;4.65;;
76850;SDS011;65824;43.726;20.692;2023-03-23T13:11:47;5.88;;;3.42;;
76850;SDS011;65824;43.726;20.692;2023-03-23T13:23:14;6.25;;;4.32;;
76850;SDS011;65824;43.726;20.692;2023-03-23T13:25:55;5.80;;;3.80;;
76850;SDS011;65824;43.726;20.692;2023-03-23T13:28:32;6.93;;;4.25;;
76850;SDS011;65824;43.726;20.692;2023-03-23T13:31:13;6.03;;;4.15;;
76850;SDS011;65824;43.726;20.692;2023-03-23T13:33:51;6.63;;;4.13;;
76850;SDS011;65824;43.726;20.692;2023-03-23T13:39:05;7.28;;;4.07;;
76850;SDS011;65824;43.726;20.692;2023-03-23T13:52:21;6.75;;;4.13;;
76850;SDS011;65824;43.726;20.692;2023-03-23T13:58:10;6.40;;;4.00;;
76850;SDS011;65824;43.726;20.692;2023-03-23T14:06:03;9.65;;;4.63;;
76850;SDS011;65824;43.726;20.692;2023-03-23T14:11:09;12.85;;;4.82;;
76850;SDS011;65824;43.726;20.692;2023-03-23T14:16:44;7.57;;;4.50;;
76850;SDS011;65824;43.726;20.692;2023-03-23T14:19:28;7.47;;;4.40;;
76850;SDS011;65824;43.726;20.692;2023-03-23T14:21:58;6.38;;;3.65;;
76850;SDS011;65824;43.726;20.692;2023-03-23T14:25:18;6.82;;;3.67;;
76850;SDS011;65824;43.726;20.692;2023-03-23T14:27:45;7.35;;;4.43;;
76850;SDS011;65824;43.726;20.692;2023-03-23T14:30:18;9.40;;;4.80;;
76850;SDS011;65824;43.726;20.692;2023-03-23T14:32:49;12.10;;;5.00;;
76850;SDS011;65824;43.726;20.692;2023-03-23T14:37:50;7.63;;;4.63;;
76850;SDS011;65824;43.726;20.692;2023-03-23T14:40:16;8.70;;;4.15;;
76850;SDS011;65824;43.726;20.692;2023-03-23T14:42:42;8.45;;;4.45;;
76850;SDS011;65824;43.726;20.692;2023-03-23T14:45:16;8.40;;;4.35;;
76850;SDS011;65824;43.726;20.692;2023-03-23T14:56:13;9.00;;;4.70;;
76850;SDS011;65824;43.726;20.692;2023-03-23T14:58:48;6.97;;;4.25;;
76850;SDS011;65824;43.726;20.692;2023-03-23T15:01:28;7.88;;;5.18;;
76850;SDS011;65824;43.726;20.692;2023-03-23T15:03:56;7.63;;;4.63;;
76850;SDS011;65824;43.726;20.692;2023-03-23T15:06:25;7.57;;;4.90;;
76850;SDS011;65824;43.726;20.692;2023-03-23T15:08:53;7.60;;;5.10;;
76850;SDS011;65824;43.726;20.692;2023-03-23T15:13:50;10.15;;;5.43;;
76850;SDS011;65824;43.726;20.692;2023-03-23T15:16:26;8.95;;;5.30;;
76850;SDS011;65824;43.726;20.692;2023-03-23T15:23:55;9.30;;;6.00;;
76850;SDS011;65824;43.726;20.692;2023-03-23T15:26:29;8.63;;;6.05;;
76850;SDS011;65824;43.726;20.692;2023-03-23T15:31:39;15.75;;;7.28;;
76850;SDS011;65824;43.726;20.692;2023-03-23T15:34:11;12.38;;;7.45;;
76850;SDS011;65824;43.726;20.692;2023-03-23T15:36:40;10.48;;;6.55;;
76850;SDS011;65824;43.726;20.692;2023-03-23T15:39:06;10.88;;;6.68;;
76850;SDS011;65824;43.726;20.692;2023-03-23T15:41:44;12.60;;;7.75;;
76850;SDS011;65824;43.726;20.692;2023-03-23T15:44:24;8.75;;;6.07;;
76850;SDS011;65824;43.726;20.692;2023-03-23T15:46:55;10.30;;;6.68;;
76850;SDS011;65824;43.726;20.692;2023-03-23T15:49:29;8.18;;;5.50;;
76850;SDS011;65824;43.726;20.692;2023-03-23T15:51:54;10.02;;;6.30;;
76850;SDS011;65824;43.726;20.692;2023-03-23T15:54:21;9.40;;;6.10;;
76850;SDS011;65824;43.726;20.692;2023-03-23T15:56:47;10.20;;;7.07;;
76850;SDS011;65824;43.726;20.692;2023-03-23T15:59:19;15.55;;;7.13;;
76850;SDS011;65824;43.726;20.692;2023-03-23T16:01:44;9.55;;;6.22;;
76850;SDS011;65824;43.726;20.692;2023-03-23T16:04:13;8.93;;;5.82;;
76850;SDS011;65824;43.726;20.692;2023-03-23T16:06:41;8.45;;;5.88;;
76850;SDS011;65824;43.726;20.692;2023-03-23T16:09:12;9.88;;;6.38;;
76850;SDS011;65824;43.726;20.692;2023-03-23T16:11:41;11.20;;;6.75;;
76850;SDS011;65824;43.726;20.692;2023-03-23T16:14:06;12.48;;;7.38;;
76850;SDS011;65824;43.726;20.692;2023-03-23T16:16:37;10.45;;;6.68;;
76850;SDS011;65824;43.726;20.692;2023-03-23T16:19:03;11.70;;;6.95;;
76850;SDS011;65824;43.726;20.692;2023-03-23T16:21:30;10.68;;;6.78;;
76850;SDS011;65824;43.726;20.692;2023-03-23T16:23:57;13.80;;;8.38;;
76850;SDS011;65824;43.726;20.692;2023-03-23T16:26:22;13.18;;;8.07;;
76850;SDS011;65824;43.726;20.692;2023-03-23T16:28:48;13.45;;;7.57;;
76850;SDS011;65824;43.726;20.692;2023-03-23T16:31:14;11.63;;;7.75;;
76850;SDS011;65824;43.726;20.692;2023-03-23T16:33:39;12.68;;;7.88;;
76850;SDS011;65824;43.726;20.692;2023-03-23T16:36:11;12.13;;;8.20;;
76850;SDS011;65824;43.726;20.692;2023-03-23T16:38:36;14.45;;;9.18;;
76850;SDS011;65824;43.726;20.692;2023-03-23T16:41:02;13.07;;;8.60;;
76850;SDS011;65824;43.726;20.692;2023-03-23T16:43:30;11.90;;;8.68;;
76850;SDS011;65824;43.726;20.692;2023-03-23T16:45:55;13.98;;;8.98;;
76850;SDS011;65824;43.726;20.692;2023-03-23T16:48:23;13.95;;;8.77;;
76850;SDS011;65824;43.726;20.692;2023-03-23T16:50:53;16.70;;;11.40;;
76850;SDS011;65824;43.726;20.692;2023-03-23T16:53:21;23.95;;;13.60;;
76850;SDS011;65824;43.726;20.692;2023-03-23T16:55:49;21.58;;;14.18;;
76850;SDS011;65824;43.726;20.692;2023-03-23T16:58:16;23.52;;;14.20;;
76850;SDS011;65824;43.726;20.692;2023-03-23T17:00:47;22.27;;;14.43;;
76850;SDS011;65824;43.726;20.692;2023-03-23T17:03:15;23.92;;;15.07;;
76850;SDS011;65824;43.726;20.692;2023-03-23T17:05:49;23.13;;;13.93;;
76850;SDS011;65824;43.726;20.692;2023-03-23T17:08:16;21.30;;;12.93;;
76850;SDS011;65824;43.726;20.692;2023-03-23T17:10:43;26.92;;;15.20;;
76850;SDS011;65824;43.726;20.692;2023-03-23T17:13:13;28.45;;;17.80;;
76850;SDS011;65824;43.726;20.692;2023-03-23T17:15:41;44.25;;;22.42;;
76850;SDS011;65824;43.726;20.692;2023-03-23T17:18:17;50.13;;;25.92;;
76850;SDS011;65824;43.726;20.692;2023-03-23T17:20:48;52.10;;;28.00;;
76850;SDS011;65824;43.726;20.692;2023-03-23T17:23:14;53.67;;;29.23;;
76850;SDS011;65824;43.726;20.692;2023-03-23T17:25:42;51.15;;;29.33;;